Time;durP1;ratioP1;P1;durP2;ratioP2;P2;SDS_P1;SDS_P2;PMS_P1;PMS_P2;Temp;Humidity;BMP_temperature;BMP_pressure;BME280_temperature;BME280_humidity;BME280_pressure;Samples;Min_cycle;Max_cycle;Signal;HPM_P1;HPM_P2
2023/03/10 00:00:21;;;;;;;0.00;0.00;;;;;;;4.42;68.06;98680.84;7356184;19;20014;-61
2023/03/10 00:02:48;;;;;;;0.10;0.10;;;;;;;4.44;68.29;98691.13;7356709;19;20014;-61
2023/03/10 00:05:15;;;;;;;0.03;0.03;;;;;;;4.43;68.63;98695.47;7357546;19;20017;-61
2023/03/10 00:07:42;;;;;;;0.00;0.00;;;;;;;4.43;67.97;98705.78;7359561;19;20039;-61
2023/03/10 00:10:10;;;;;;;0.00;0.00;;;;;;;4.45;68.39;98702.31;7354612;19;20927;-61
2023/03/10 00:12:35;;;;;;;0.00;0.00;;;;;;;4.45;68.11;98707.47;7353490;19;20007;-61
2023/03/10 00:15:01;;;;;;;0.00;0.00;;;;;;;4.10;68.70;98670.59;7343912;19;20813;-61
2023/03/10 00:17:26;;;;;;;0.00;0.00;;;;;;;4.45;68.50;98728.16;7348361;19;20022;-61
2023/03/10 00:19:52;;;;;;;0.00;0.00;;;;;;;4.46;68.44;98722.09;7343566;19;20022;-61
2023/03/10 00:22:17;;;;;;;0.00;0.00;;;;;;;4.45;69.12;98730.75;7353634;19;20074;-61
2023/03/10 00:24:43;;;;;;;0.10;0.10;;;;;;;4.47;68.50;98741.91;7350834;19;20482;-61
2023/03/10 00:27:08;;;;;;;0.00;0.00;;;;;;;4.47;68.22;98752.22;7352907;19;20039;-61
2023/03/10 00:29:33;;;;;;;0.00;0.00;;;;;;;4.46;68.70;98769.47;7347523;19;20043;-61
2023/03/10 00:31:59;;;;;;;0.00;0.00;;;;;;;4.47;68.55;98778.06;7350486;19;20006;-60
2023/03/10 00:34:24;;;;;;;0.00;0.00;;;;;;;4.47;68.29;98791.00;7348824;19;20014;-61
2023/03/10 00:36:50;;;;;;;0.00;0.00;;;;;;;4.48;68.67;98783.19;7349947;19;20586;-61
2023/03/10 00:39:16;;;;;;;0.00;0.00;;;;;;;4.48;68.57;98777.19;7347893;19;20010;-61
2023/03/10 00:41:41;;;;;;;0.00;0.00;;;;;;;4.34;68.50;98768.06;7351228;19;20718;-61
2023/03/10 00:44:08;;;;;;;0.00;0.00;;;;;;;4.41;68.45;98785.13;7348552;19;20010;-61
2023/03/10 00:46:35;;;;;;;0.00;0.00;;;;;;;4.45;68.47;98808.28;7351682;19;20026;-61
2023/03/10 00:49:00;;;;;;;0.00;0.00;;;;;;;4.46;68.57;98818.59;7350111;19;20006;-61
2023/03/10 00:51:26;;;;;;;0.00;0.00;;;;;;;4.47;68.69;98827.19;7355473;19;20086;-61
2023/03/10 00:53:51;;;;;;;0.00;0.00;;;;;;;4.38;68.81;98831.72;7355639;19;20458;-61
2023/03/10 00:56:23;;;;;;;0.00;0.00;;;;;;;4.46;69.03;98857.34;7357578;19;20018;-61
2023/03/10 00:58:57;;;;;;;0.00;0.00;;;;;;;4.46;68.76;98864.22;7348032;19;20011;-61
2023/03/10 01:01:24;;;;;;;0.00;0.00;;;;;;;4.42;69.11;98872.09;7359005;19;20463;-61
2023/03/10 01:03:51;;;;;;;0.00;0.00;;;;;;;4.43;68.78;98897.03;7356780;19;20021;-61
2023/03/10 01:06:16;;;;;;;0.00;0.00;;;;;;;4.43;68.14;98912.53;7359442;19;21005;-61
2023/03/10 01:08:41;;;;;;;0.05;0.05;;;;;;;4.42;68.98;98910.84;7358506;19;22310;-61
2023/03/10 01:11:07;;;;;;;0.00;0.00;;;;;;;4.40;68.83;98935.03;7357963;19;20023;-62
2023/03/10 01:13:32;;;;;;;0.00;0.00;;;;;;;4.41;68.80;98940.16;7353669;19;20589;-61
2023/03/10 01:15:58;;;;;;;0.00;0.00;;;;;;;4.41;69.37;98937.59;7353293;19;20002;-61
2023/03/10 01:18:23;;;;;;;0.10;0.10;;;;;;;4.39;69.01;98947.09;7358426;19;20017;-61
2023/03/10 01:20:49;;;;;;;0.00;0.00;;;;;;;4.40;68.85;98959.13;7357902;19;20010;-61
2023/03/10 01:23:23;;;;;;;0.10;0.10;;;;;;;4.31;68.66;98977.47;7358770;19;20381;-61
2023/03/10 01:25:49;;;;;;;0.00;0.00;;;;;;;4.39;68.29;99014.28;7355382;19;20010;-61
2023/03/10 01:28:15;;;;;;;0.00;0.00;;;;;;;4.39;68.21;99049.63;7357137;19;20855;-61
2023/03/10 01:30:41;;;;;;;0.00;0.00;;;;;;;4.36;68.44;99063.47;7358353;19;20014;-61
2023/03/10 01:33:08;;;;;;;0.00;0.00;;;;;;;4.34;68.46;99078.16;7357593;19;21387;-61
2023/03/10 01:35:33;;;;;;;0.00;0.00;;;;;;;4.32;67.75;99087.69;7354952;19;20002;-61
2023/03/10 01:37:59;;;;;;;0.05;0.05;;;;;;;4.28;68.60;99092.97;7354477;19;20029;-61
2023/03/10 01:40:25;;;;;;;0.00;0.00;;;;;;;4.25;68.52;99099.03;7353301;19;20021;-61
2023/03/10 01:42:51;;;;;;;0.05;0.05;;;;;;;4.22;67.77;99099.13;7354733;19;20039;-59
2023/03/10 01:45:17;;;;;;;0.08;0.08;;;;;;;4.18;68.69;99107.81;7355892;19;20010;-61
2023/03/10 01:47:44;;;;;;;0.10;0.10;;;;;;;4.11;68.72;99101.09;7354483;19;20094;-61
2023/03/10 01:50:16;;;;;;;0.00;0.00;;;;;;;3.99;68.99;99085.84;7354006;19;20030;-61
2023/03/10 01:52:46;;;;;;;0.00;0.00;;;;;;;4.08;68.86;99101.16;7354576;19;20471;-61
2023/03/10 01:55:20;;;;;;;0.03;0.03;;;;;;;4.05;68.55;99107.22;7358389;19;20454;-61
2023/03/10 01:57:52;;;;;;;0.00;0.00;;;;;;;4.01;68.22;99105.63;7357213;19;20073;-61
2023/03/10 02:00:19;;;;;;;0.00;0.00;;;;;;;3.94;68.58;99095.44;7355257;19;20951;-61
2023/03/10 02:03:06;;;;;;;0.00;0.00;;;;;;;3.93;68.26;99097.19;7356143;19;20030;-60
2023/03/10 02:05:33;;;;;;;0.00;0.00;;;;;;;3.87;68.83;99113.66;7354614;19;20015;-60
2023/03/10 02:07:59;;;;;;;0.00;0.00;;;;;;;3.82;68.48;99107.72;7356500;19;20026;-59
2023/03/10 02:10:26;;;;;;;0.00;0.00;;;;;;;3.65;68.88;99081.44;7355143;19;20465;-60
2023/03/10 02:12:51;;;;;;;0.00;0.00;;;;;;;3.74;68.33;99107.03;7354811;19;20613;-61
2023/03/10 02:15:17;;;;;;;0.10;0.10;;;;;;;3.71;68.28;99107.13;7348325;19;20021;-60
2023/03/10 02:17:42;;;;;;;0.10;0.10;;;;;;;3.67;68.82;99096.88;7353301;19;20014;-61
2023/03/10 02:20:08;;;;;;;0.00;0.00;;;;;;;3.62;68.60;99096.97;7356887;19;20011;-60
2023/03/10 02:22:34;;;;;;;0.00;0.00;;;;;;;3.59;68.73;99097.00;7352667;19;20010;-61
2023/03/10 02:25:37;;;;;;;0.10;0.10;;;;;;;3.57;68.02;99104.78;7355478;19;20014;-60
2023/03/10 02:28:03;;;;;;;0.10;0.10;;;;;;;3.53;69.07;99110.03;7261833;19;2004246;-60
2023/03/10 02:30:33;;;;;;;0.00;0.00;;;;;;;3.47;68.77;99112.75;7361261;19;20360;-61
2023/03/10 02:33:06;;;;;;;0.10;0.10;;;;;;;3.31;67.65;99081.25;7357758;19;20010;-61
2023/03/10 02:35:32;;;;;;;0.10;0.10;;;;;;;3.46;67.73;99131.69;7362082;19;20002;-61
2023/03/10 02:37:58;;;;;;;0.00;0.00;;;;;;;3.42;68.10;99124.91;7361177;19;20017;-61
2023/03/10 02:41:00;;;;;;;0.00;0.00;;;;;;;3.33;66.48;99126.75;7357257;19;21154;-61
2023/03/10 02:43:32;;;;;;;0.00;0.00;;;;;;;3.38;67.60;99135.25;7254239;19;2004371;-61
2023/03/10 02:46:01;;;;;;;0.00;0.00;;;;;;;3.37;66.99;99154.22;7361730;19;20003;-61
2023/03/10 02:48:33;;;;;;;0.00;0.00;;;;;;;3.35;66.31;99155.13;7356299;19;20074;-60
2023/03/10 02:51:02;;;;;;;0.10;0.10;;;;;;;3.30;67.75;99167.25;7358386;19;20480;-61
2023/03/10 02:53:28;;;;;;;0.10;0.10;;;;;;;3.31;68.15;99181.84;7355951;19;20529;-60
2023/03/10 02:55:54;;;;;;;0.10;0.10;;;;;;;3.28;68.47;99200.81;7360407;19;20098;-61
2023/03/10 02:58:21;;;;;;;0.10;0.10;;;;;;;3.28;68.28;99216.28;7347349;19;20097;-61
2023/03/10 03:00:48;;;;;;;0.00;0.00;;;;;;;3.14;67.68;99202.75;7358302;19;20014;-61
2023/03/10 03:03:16;;;;;;;0.00;0.00;;;;;;;3.27;68.00;99212.00;7357163;19;20018;-60
2023/03/10 03:05:41;;;;;;;0.00;0.00;;;;;;;3.28;67.39;99228.34;7346816;19;20011;-61
2023/03/10 03:08:07;;;;;;;0.03;0.03;;;;;;;3.25;67.44;99226.66;7353800;19;20022;-61
2023/03/10 03:10:34;;;;;;;0.10;0.10;;;;;;;3.25;68.12;99247.31;7355045;19;20030;-61
2023/03/10 03:13:00;;;;;;;0.00;0.00;;;;;;;3.23;67.77;99264.53;7357400;19;20006;-60
2023/03/10 03:15:25;;;;;;;0.10;0.10;;;;;;;3.20;67.88;99274.06;7359582;19;25287;-61
2023/03/10 03:17:53;;;;;;;0.10;0.10;;;;;;;3.24;67.22;99286.84;7353109;19;20557;-61
2023/03/10 03:20:20;;;;;;;0.10;0.10;;;;;;;3.22;67.14;99293.78;7357371;19;20025;-60
2023/03/10 03:22:46;;;;;;;0.10;0.10;;;;;;;3.24;67.27;99312.66;7357530;19;20502;-60
2023/03/10 03:25:14;;;;;;;0.00;0.00;;;;;;;3.24;67.61;99301.50;7356896;19;20010;-60
2023/03/10 03:27:40;;;;;;;0.00;0.00;;;;;;;3.22;68.07;99322.16;7356887;19;20030;-60
2023/03/10 03:30:10;;;;;;;0.00;0.00;;;;;;;3.24;68.37;99327.28;7357656;19;20450;-61
2023/03/10 03:32:36;;;;;;;0.05;0.05;;;;;;;3.12;68.29;99312.84;7356947;19;20595;-60
2023/03/10 03:35:03;;;;;;;0.05;0.05;;;;;;;3.22;69.30;99324.72;7357704;19;20006;-61
2023/03/10 03:37:29;;;;;;;0.00;0.00;;;;;;;3.13;69.07;99314.56;7354197;19;20006;-61
2023/03/10 03:39:54;;;;;;;0.00;0.00;;;;;;;3.25;67.53;99342.75;7351070;19;21372;-60
2023/03/10 03:42:20;;;;;;;0.00;0.00;;;;;;;3.18;68.35;99343.72;7356418;19;20583;-61
2023/03/10 03:44:45;;;;;;;0.00;0.00;;;;;;;3.26;68.48;99351.34;7349388;19;20013;-61
2023/03/10 03:47:11;;;;;;;0.00;0.00;;;;;;;3.28;67.79;99365.06;7349758;19;20006;-61
2023/03/10 03:49:38;;;;;;;0.10;0.10;;;;;;;3.26;67.95;99372.84;7352849;19;20010;-61
2023/03/10 03:52:05;;;;;;;0.00;0.00;;;;;;;3.27;68.22;99384.84;7354490;19;20022;-61
2023/03/10 03:54:30;;;;;;;0.05;0.05;;;;;;;3.11;68.56;99379.06;7352708;19;20032;-60
2023/03/10 03:56:56;;;;;;;0.10;0.10;;;;;;;3.26;68.46;99401.22;7354226;19;20018;-61
2023/03/10 03:59:21;;;;;;;0.00;0.00;;;;;;;3.26;68.99;99408.09;7354711;19;20074;-61
2023/03/10 04:01:47;;;;;;;0.10;0.10;;;;;;;3.27;68.53;99418.38;7356728;19;20018;-61
2023/03/10 04:04:12;;;;;;;0.00;0.00;;;;;;;3.26;68.80;99426.16;7329339;19;20081;-61
2023/03/10 04:06:38;;;;;;;0.00;0.00;;;;;;;3.26;68.43;99429.59;7355094;19;20031;-60
2023/03/10 04:09:03;;;;;;;0.00;0.00;;;;;;;3.24;69.24;99426.16;7335163;19;20051;-61
2023/03/10 04:11:29;;;;;;;0.10;0.10;;;;;;;3.28;69.09;99442.47;7350591;19;20879;-61
2023/03/10 04:13:54;;;;;;;0.00;0.00;;;;;;;3.28;69.01;99453.63;7346048;19;20006;-61
2023/03/10 04:16:20;;;;;;;0.05;0.05;;;;;;;3.21;69.29;99449.44;7343571;19;20006;-61
2023/03/10 04:18:45;;;;;;;0.00;0.00;;;;;;;3.23;69.55;99455.41;7348629;19;20680;-61
2023/03/10 04:21:11;;;;;;;0.00;0.00;;;;;;;3.28;68.76;99479.44;7329117;19;20014;-61
2023/03/10 04:23:36;;;;;;;0.00;0.00;;;;;;;3.29;69.47;99485.44;7348234;19;20013;-61
2023/03/10 04:26:06;;;;;;;0.00;0.00;;;;;;;3.31;69.02;99496.63;7343135;19;20006;-61
2023/03/10 04:28:31;;;;;;;0.10;0.10;;;;;;;3.29;69.14;99506.09;7348750;19;20498;-61
2023/03/10 04:30:57;;;;;;;0.00;0.00;;;;;;;3.29;69.19;99518.97;7344320;19;20010;-61
2023/03/10 04:33:22;;;;;;;0.10;0.10;;;;;;;3.28;69.42;99533.59;7348327;19;20042;-60
2023/03/10 04:35:50;;;;;;;0.10;0.10;;;;;;;3.25;69.39;99531.09;7351841;19;20800;-60
2023/03/10 04:38:15;;;;;;;0.00;0.00;;;;;;;3.25;68.91;99536.25;7352012;19;20007;-61
2023/03/10 04:40:41;;;;;;;0.10;0.10;;;;;;;3.24;69.92;99544.81;7352527;19;20006;-61
2023/03/10 04:43:07;;;;;;;0.10;0.10;;;;;;;3.23;68.77;99552.59;7351575;19;20620;-60
2023/03/10 04:45:32;;;;;;;0.10;0.10;;;;;;;3.18;69.53;99560.38;7354470;19;20006;-61
2023/03/10 04:47:57;;;;;;;0.00;0.00;;;;;;;3.21;69.31;99565.53;7350386;19;20006;-61
2023/03/10 04:50:23;;;;;;;0.08;0.08;;;;;;;3.20;69.62;99581.03;7354145;19;20008;-60
2023/03/10 04:52:51;;;;;;;0.10;0.10;;;;;;;3.19;69.79;99590.47;7349979;19;20015;-60
2023/03/10 04:55:17;;;;;;;0.00;0.00;;;;;;;3.06;69.72;99569.13;7352727;19;20010;-61
2023/03/10 04:57:42;;;;;;;0.00;0.00;;;;;;;3.18;69.24;99606.81;7352208;19;20007;-60
2023/03/10 05:00:11;;;;;;;0.00;0.00;;;;;;;3.19;69.79;99623.16;7351309;19;20022;-61
2023/03/10 05:02:38;;;;;;;0.10;0.10;;;;;;;3.21;69.70;99616.25;7353565;19;20023;-61
2023/03/10 05:05:04;;;;;;;0.00;0.00;;;;;;;3.20;70.09;99618.00;7353507;19;20129;-61
2023/03/10 05:07:30;;;;;;;0.05;0.05;;;;;;;3.21;70.02;99631.75;7353920;19;20014;-60
2023/03/10 05:09:57;;;;;;;0.10;0.10;;;;;;;3.23;69.39;99632.56;7351937;19;20022;-61
2023/03/10 05:12:22;;;;;;;0.10;0.10;;;;;;;3.17;69.40;99625.75;7352448;19;20021;-61
2023/03/10 05:14:48;;;;;;;0.10;0.10;;;;;;;3.11;69.88;99615.50;7350640;19;22414;-61
2023/03/10 05:17:13;;;;;;;0.03;0.03;;;;;;;3.24;70.10;99639.44;7350400;19;20019;-61
2023/03/10 05:19:39;;;;;;;0.00;0.00;;;;;;;3.21;69.52;99637.75;7352627;19;20011;-61
2023/03/10 05:22:05;;;;;;;0.00;0.00;;;;;;;3.14;69.78;99630.94;7350956;19;20379;-61
2023/03/10 05:24:30;;;;;;;0.00;0.00;;;;;;;3.24;69.66;99672.97;7353351;19;20758;-61
2023/03/10 05:26:56;;;;;;;0.00;0.00;;;;;;;3.23;70.10;99682.44;7349986;19;20025;-61
2023/03/10 05:29:22;;;;;;;0.00;0.00;;;;;;;3.24;70.58;99699.63;7351338;19;20032;-61
2023/03/10 05:31:48;;;;;;;0.10;0.10;;;;;;;3.24;70.20;99694.47;7353426;19;20017;-62
2023/03/10 05:34:14;;;;;;;0.10;0.10;;;;;;;3.23;70.26;99702.22;7353020;19;21190;-61
2023/03/10 05:36:40;;;;;;;0.10;0.10;;;;;;;3.25;70.13;99708.25;7355187;19;20018;-61
2023/03/10 05:39:06;;;;;;;0.00;0.00;;;;;;;3.25;69.74;99706.53;7351504;19;20106;-60
2023/03/10 05:41:32;;;;;;;0.10;0.10;;;;;;;3.23;70.29;99703.06;7352295;19;20029;-61
2023/03/10 05:43:57;;;;;;;0.08;0.08;;;;;;;3.27;70.24;99704.78;7348812;19;20483;-62
2023/03/10 05:46:24;;;;;;;0.10;0.10;;;;;;;3.29;70.25;99709.91;7351381;19;20104;-61
2023/03/10 05:48:49;;;;;;;0.10;0.10;;;;;;;3.21;70.56;99694.50;7349473;19;20014;-60
2023/03/10 05:51:15;;;;;;;0.00;0.00;;;;;;;3.30;70.32;99719.38;7350366;19;20010;-61
2023/03/10 05:53:41;;;;;;;0.10;0.10;;;;;;;3.30;70.70;99725.41;7350451;19;20010;-60
2023/03/10 05:56:18;;;;;;;0.00;0.00;;;;;;;3.32;70.61;99728.81;7350167;19;20006;-61
2023/03/10 05:58:45;;;;;;;0.10;0.10;;;;;;;3.32;70.79;99739.13;7349922;19;20102;-61
2023/03/10 06:01:11;;;;;;;0.08;0.08;;;;;;;3.33;71.05;99743.41;7357197;19;21003;-61
2023/03/10 06:03:37;;;;;;;0.00;0.00;;;;;;;2.95;70.71;99681.84;7359711;19;20017;-61
2023/03/10 06:06:05;;;;;;;0.10;0.10;;;;;;;3.36;70.97;99751.13;7358028;19;20022;-60
2023/03/10 06:08:31;;;;;;;;;;;;;;;3.39;68.52;99740.75;7357017;19;20015;-61
2023/03/10 06:10:57;;;;;;;0.00;0.00;;;;;;;3.36;70.09;99750.28;7357510;19;19931;-62
2023/03/10 06:13:23;;;;;;;0.08;0.08;;;;;;;3.35;70.36;99739.09;7357619;19;20037;-61
2023/03/10 06:15:53;;;;;;;0.10;0.10;;;;;;;3.34;70.74;99737.38;7357604;19;20028;-61
2023/03/10 06:18:18;;;;;;;0.10;0.10;;;;;;;3.32;70.81;99743.44;7354496;19;20113;-61
2023/03/10 06:20:44;;;;;;;0.00;0.00;;;;;;;3.30;71.03;99743.47;7356407;19;20017;-61
2023/03/10 06:23:10;;;;;;;0.00;0.00;;;;;;;3.30;70.42;99760.66;7358340;19;20011;-60
2023/03/10 06:25:35;;;;;;;0.00;0.00;;;;;;;3.29;70.57;99762.34;7356936;19;20014;-61
2023/03/10 06:28:01;;;;;;;0.10;0.10;;;;;;;3.26;71.17;99774.44;7356595;19;20019;-61
2023/03/10 06:30:26;;;;;;;0.10;0.10;;;;;;;3.20;70.84;99764.19;7356465;19;20006;-61
2023/03/10 06:32:52;;;;;;;0.10;0.10;;;;;;;3.23;71.20;99774.47;7355438;19;20099;-61
2023/03/10 06:35:17;;;;;;;0.10;0.10;;;;;;;3.21;70.71;99784.81;7353262;19;21561;-62
2023/03/10 06:37:43;;;;;;;0.00;0.00;;;;;;;3.18;71.26;99786.53;7357231;19;20011;-62
2023/03/10 06:40:11;;;;;;;0.00;0.00;;;;;;;3.17;71.29;99801.16;7354836;19;20378;-61
2023/03/10 06:42:39;;;;;;;0.00;0.00;;;;;;;3.15;71.39;99817.53;7356015;19;20023;-61
2023/03/10 06:45:05;;;;;;;0.10;0.10;;;;;;;3.11;71.36;99814.97;7356562;19;21489;-61
2023/03/10 06:47:30;;;;;;;0.10;0.10;;;;;;;2.95;71.46;99810.78;7358100;19;20006;-61
2023/03/10 06:49:56;;;;;;;0.03;0.03;;;;;;;3.07;71.45;99851.09;7355333;19;20026;-61
2023/03/10 06:52:21;;;;;;;0.10;0.10;;;;;;;2.98;71.54;99858.88;7356410;19;20032;-61
2023/03/10 06:54:47;;;;;;;0.10;0.10;;;;;;;3.02;71.19;99876.06;7350167;19;20734;-61
2023/03/10 06:57:12;;;;;;;0.10;0.10;;;;;;;3.00;71.64;99875.22;7357846;19;21602;-61
2023/03/10 06:59:37;;;;;;;0.00;0.00;;;;;;;2.97;71.17;99888.13;7344349;19;20031;-61
2023/03/10 07:02:03;;;;;;;0.10;0.10;;;;;;;2.95;71.30;99897.59;7352960;19;20039;-61
2023/03/10 07:04:28;;;;;;;0.10;0.10;;;;;;;2.93;71.18;99899.31;7357718;19;20513;-62
2023/03/10 07:06:54;;;;;;;0.10;0.10;;;;;;;2.92;71.42;99887.28;7357182;19;20734;-62
2023/03/10 07:09:19;;;;;;;0.03;0.03;;;;;;;2.88;71.48;99890.75;7357407;19;20082;-62
2023/03/10 07:11:44;;;;;;;0.00;0.00;;;;;;;2.86;71.42;99878.72;7352602;19;20018;-61
2023/03/10 07:14:10;;;;;;;0.00;0.00;;;;;;;2.86;71.20;99881.28;7350658;19;20862;-62
2023/03/10 07:16:38;;;;;;;0.10;0.10;;;;;;;2.84;71.27;99888.19;7347706;19;20045;-61
2023/03/10 07:19:03;;;;;;;0.00;0.00;;;;;;;2.82;71.51;99881.31;7355488;19;20015;-61
2023/03/10 07:21:29;;;;;;;0.10;0.10;;;;;;;2.79;71.18;99887.34;7348155;19;20002;-61
2023/03/10 07:23:54;;;;;;;0.10;0.10;;;;;;;2.66;70.92;99875.38;7354415;19;20014;-61
2023/03/10 07:26:20;;;;;;;0.10;0.10;;;;;;;2.60;70.74;99862.50;7359078;19;20021;-61
2023/03/10 07:28:46;;;;;;;0.00;0.00;;;;;;;2.74;70.71;99891.69;7355871;19;20477;-61
2023/03/10 07:31:13;;;;;;;0.00;0.00;;;;;;;2.73;71.18;99891.66;7355907;19;20014;-62
2023/03/10 07:33:38;;;;;;;0.00;0.00;;;;;;;2.71;70.79;99896.84;7349933;19;20007;-61
2023/03/10 07:36:06;;;;;;;0.10;0.10;;;;;;;2.69;71.30;99911.47;7343304;19;20014;-61
2023/03/10 07:38:32;;;;;;;0.00;0.00;;;;;;;2.67;71.32;99908.00;7344500;19;20013;-61
2023/03/10 07:40:58;;;;;;;0.10;0.10;;;;;;;2.65;71.12;99914.91;7354656;19;20577;-61
2023/03/10 07:43:23;;;;;;;0.10;0.10;;;;;;;2.64;71.10;99930.38;7321771;19;20011;-61
2023/03/10 07:45:48;;;;;;;0.00;0.00;;;;;;;2.65;71.09;99940.69;7344438;19;20006;-61
2023/03/10 07:48:14;;;;;;;0.00;0.00;;;;;;;2.63;71.03;99952.69;7349261;19;20031;-61
2023/03/10 07:50:39;;;;;;;0.10;0.10;;;;;;;2.62;71.37;99958.72;7340641;19;20029;-62
2023/03/10 07:53:05;;;;;;;0.00;0.00;;;;;;;2.61;71.05;99957.00;7345355;19;20018;-61
2023/03/10 07:55:30;;;;;;;0.00;0.00;;;;;;;2.62;70.69;99971.59;7347693;19;20014;-61
2023/03/10 07:57:59;;;;;;;0.00;0.00;;;;;;;2.62;71.19;99971.59;7329658;19;20696;-62
2023/03/10 08:00:25;;;;;;;0.00;0.00;;;;;;;2.54;71.09;99965.63;7344596;19;20475;-61
2023/03/10 08:02:50;;;;;;;0.10;0.10;;;;;;;2.66;71.07;99981.06;7349884;19;20037;-61
2023/03/10 08:05:15;;;;;;;0.03;0.03;;;;;;;2.69;70.85;99993.94;7347176;19;20475;-61
2023/03/10 08:07:42;;;;;;;0.10;0.10;;;;;;;2.74;71.17;100004.25;7351007;19;20015;-61
2023/03/10 08:10:08;;;;;;;0.10;0.10;;;;;;;2.79;70.69;100005.94;7344418;19;20014;-61
2023/03/10 08:12:34;;;;;;;0.10;0.10;;;;;;;2.84;70.49;100009.38;7346632;19;20922;-61
2023/03/10 08:14:59;;;;;;;0.08;0.08;;;;;;;2.92;70.29;100026.53;7345818;19;20017;-61
2023/03/10 08:17:29;;;;;;;0.10;0.10;;;;;;;2.96;70.26;100028.25;7346017;19;20007;-61
2023/03/10 08:19:59;;;;;;;0.10;0.10;;;;;;;3.07;70.29;100022.19;7340844;19;20014;-61
2023/03/10 08:22:25;;;;;;;0.00;0.00;;;;;;;3.16;70.15;100030.78;7346380;19;20485;-62
2023/03/10 08:24:51;;;;;;;0.10;0.10;;;;;;;3.26;70.11;100041.06;7343829;19;20039;-61
2023/03/10 08:27:16;;;;;;;0.05;0.05;;;;;;;3.39;70.24;100050.44;7343265;19;20022;-61
2023/03/10 08:29:42;;;;;;;0.00;0.00;;;;;;;3.50;69.99;100053.00;7350121;19;20101;-62
2023/03/10 08:32:07;;;;;;;0.10;0.10;;;;;;;3.62;70.20;100052.94;7344539;19;20006;-62
2023/03/10 08:34:34;;;;;;;0.10;0.10;;;;;;;3.76;69.97;100065.78;7346884;19;20009;-62
2023/03/10 08:37:00;;;;;;;0.10;0.10;;;;;;;3.88;69.71;100076.03;7333770;19;20006;-61
2023/03/10 08:39:27;;;;;;;0.10;0.10;;;;;;;4.05;69.99;100073.34;7346710;19;20677;-61
2023/03/10 08:41:53;;;;;;;0.00;0.00;;;;;;;4.21;69.83;100068.97;7347264;19;20491;-61
2023/03/10 08:44:19;;;;;;;0.00;0.00;;;;;;;4.35;69.53;100074.88;7346671;19;20018;-61
2023/03/10 08:46:47;;;;;;;0.00;0.00;;;;;;;4.51;69.62;100078.22;7345447;19;20010;-61
2023/03/10 08:49:13;;;;;;;;;;;;;;;4.69;68.88;100082.38;7348229;19;20796;-61
2023/03/10 08:51:39;;;;;;;0.00;0.00;;;;;;;4.78;68.79;100090.06;7347896;19;20553;-61
2023/03/10 08:54:05;;;;;;;0.10;0.10;;;;;;;4.91;69.29;100089.03;7348725;19;20126;-61
2023/03/10 08:56:31;;;;;;;0.10;0.10;;;;;;;5.00;69.46;100088.09;7348405;19;20033;-61
2023/03/10 08:58:59;;;;;;;0.00;0.00;;;;;;;5.21;69.29;100089.63;7347810;19;20748;-62
2023/03/10 09:01:29;;;;;;;0.10;0.10;;;;;;;5.42;68.87;100086.81;7347399;19;20025;-61
2023/03/10 09:03:55;;;;;;;0.10;0.10;;;;;;;5.58;68.74;100102.16;7346857;19;20013;-62
2023/03/10 09:06:21;;;;;;;0.10;0.10;;;;;;;5.79;68.83;100109.66;7343557;19;20936;-61
2023/03/10 09:08:49;;;;;;;0.00;0.00;;;;;;;6.00;69.03;100112.88;7347968;19;20172;-61
2023/03/10 09:11:22;;;;;;;0.00;0.00;;;;;;;6.22;68.68;100111.69;7341884;19;20014;-61
2023/03/10 09:13:47;;;;;;;0.00;0.00;;;;;;;6.40;68.25;100116.63;7348007;19;20597;-62
2023/03/10 09:16:14;;;;;;;0.05;0.05;;;;;;;6.59;68.29;100116.31;7346250;19;20027;-61
2023/03/10 09:18:40;;;;;;;0.00;0.00;;;;;;;6.75;68.07;100133.38;7347405;19;20048;-62
2023/03/10 09:21:05;;;;;;;0.00;0.00;;;;;;;6.91;67.99;100139.19;7346048;19;20019;-62
2023/03/10 09:23:31;;;;;;;0.00;0.00;;;;;;;6.98;68.15;100126.06;7345258;19;20011;-62
2023/03/10 09:25:56;;;;;;;0.00;0.00;;;;;;;7.15;67.51;100132.72;7347372;19;20022;-61
2023/03/10 09:28:22;;;;;;;0.10;0.10;;;;;;;7.26;67.50;100135.97;7345864;19;20025;-61
2023/03/10 09:30:49;;;;;;;0.00;0.00;;;;;;;7.37;67.83;100148.75;7345774;19;20127;-61
2023/03/10 09:33:17;;;;;;;0.00;0.00;;;;;;;7.50;67.53;100143.31;7341162;19;20011;-62
2023/03/10 09:35:42;;;;;;;;;;;;;;;7.72;67.54;100146.34;7340548;19;20046;-62
2023/03/10 09:38:08;;;;;;;0.00;0.00;;;;;;;7.81;66.97;100147.91;7345943;19;19926;-61
2023/03/10 09:40:36;;;;;;;0.00;0.00;;;;;;;7.68;66.95;100113.50;7338172;19;20011;-62
2023/03/10 09:43:06;;;;;;;0.00;0.00;;;;;;;8.17;67.25;100163.63;7341996;19;20033;-62
2023/03/10 09:45:52;;;;;;;0.00;0.00;;;;;;;8.37;67.22;100177.09;7342916;19;20471;-61
2023/03/10 09:48:40;;;;;;;0.03;0.03;;;;;;;8.63;66.74;100178.25;7342759;19;20047;-61
2023/03/10 09:51:21;;;;;;;0.00;0.00;;;;;;;8.83;66.53;100168.22;7336922;19;20010;-61
2023/03/10 09:53:55;;;;;;;0.10;0.10;;;;;;;9.03;66.52;100163.38;7340856;19;20474;-62
2023/03/10 09:56:33;;;;;;;0.00;0.00;;;;;;;9.21;65.88;100176.81;7342781;19;20937;-61
2023/03/10 09:59:12;;;;;;;0.10;0.10;;;;;;;9.42;66.51;100160.63;7344076;19;20018;-61
2023/03/10 10:01:43;;;;;;;0.00;0.00;;;;;;;9.58;65.78;100156.72;7345845;19;20033;-61
2023/03/10 10:04:17;;;;;;;0.00;0.00;;;;;;;9.71;65.69;100164.19;7339322;19;20018;-61
2023/03/10 10:06:46;;;;;;;0.00;0.00;;;;;;;9.74;65.63;100167.59;7339134;19;20606;-61
2023/03/10 10:09:24;;;;;;;0.10;0.10;;;;;;;9.85;65.60;100169.88;7344639;19;20358;-62
2023/03/10 10:11:49;;;;;;;0.10;0.10;;;;;;;9.80;65.32;100166.56;7343758;19;20771;-61
2023/03/10 10:14:28;;;;;;;0.00;0.00;;;;;;;9.91;65.62;100158.44;7343964;19;21553;-61
2023/03/10 10:17:11;;;;;;;0.10;0.10;;;;;;;9.97;65.63;100176.50;7343714;19;20023;-61
2023/03/10 10:19:39;;;;;;;0.00;0.00;;;;;;;10.03;65.80;100173.72;7343322;19;20006;-61
2023/03/10 10:22:24;;;;;;;0.00;0.00;;;;;;;10.12;65.65;100178.66;7340499;19;20022;-61
2023/03/10 10:25:08;;;;;;;0.10;0.10;;;;;;;10.15;65.54;100178.59;7334237;19;20022;-62
2023/03/10 10:27:35;;;;;;;0.00;0.00;;;;;;;10.14;65.99;100172.53;7342560;19;20021;-61
2023/03/10 10:30:39;;;;;;;0.00;0.00;;;;;;;10.24;65.57;100172.25;7341555;19;20454;-61
2023/03/10 10:33:04;;;;;;;0.00;0.00;;;;;;;10.22;65.92;100176.66;7236121;19;2004286;-61
2023/03/10 10:35:38;;;;;;;0.00;0.00;;;;;;;10.30;65.52;100187.75;7338995;19;20723;-61
2023/03/10 10:38:22;;;;;;;0.00;0.00;;;;;;;10.40;65.81;100189.19;7338312;19;20422;-62
2023/03/10 10:40:58;;;;;;;0.00;0.00;;;;;;;10.45;65.48;100202.97;7338902;19;20015;-61
2023/03/10 10:43:24;;;;;;;0.00;0.00;;;;;;;10.52;65.83;100203.63;7341781;19;20022;-62
2023/03/10 10:45:53;;;;;;;0.03;0.03;;;;;;;10.66;65.72;100211.88;7339802;19;20043;-64
2023/03/10 10:48:44;;;;;;;0.00;0.00;;;;;;;10.88;65.55;100212.06;7349254;19;21188;-62
2023/03/10 10:51:29;;;;;;;0.00;0.00;;;;;;;10.99;65.02;100220.41;7249835;19;2004533;-62
2023/03/10 10:54:00;;;;;;;0.10;0.10;;;;;;;11.08;65.10;100224.50;7350330;19;20014;-62
2023/03/10 10:56:27;;;;;;;0.00;0.00;;;;;;;10.88;64.95;100178.09;7344861;19;20019;-62
2023/03/10 10:59:16;;;;;;;0.00;0.00;;;;;;;11.48;64.84;100234.47;7346465;19;20874;-62
2023/03/10 11:01:58;;;;;;;0.00;0.00;;;;;;;11.70;65.21;100239.81;7347103;19;20028;-62
2023/03/10 11:04:26;;;;;;;0.00;0.00;;;;;;;11.81;64.59;100237.72;7351084;19;20021;-62
2023/03/10 11:07:08;;;;;;;0.00;0.00;;;;;;;11.79;64.84;100202.03;7338957;19;20010;-62
2023/03/10 11:09:33;;;;;;;0.10;0.10;;;;;;;12.12;64.73;100242.72;7347252;19;20014;-62
2023/03/10 11:12:36;;;;;;;0.03;0.03;;;;;;;12.39;64.76;100234.75;7342959;19;21442;-62
2023/03/10 11:15:06;;;;;;;0.10;0.10;;;;;;;12.54;64.38;100244.66;7241148;19;2004253;-61
2023/03/10 11:17:50;;;;;;;0.10;0.10;;;;;;;12.87;64.76;100252.09;7345377;19;20015;-62
2023/03/10 11:20:26;;;;;;;0.10;0.10;;;;;;;13.07;64.20;100262.66;7341666;19;20018;-61
2023/03/10 11:23:13;;;;;;;0.10;0.10;;;;;;;13.32;64.30;100264.31;7351367;19;20014;-61
2023/03/10 11:25:42;;;;;;;0.10;0.10;;;;;;;13.47;63.27;100269.78;7349802;19;20713;-62
2023/03/10 11:28:39;;;;;;;0.10;0.10;;;;;;;13.79;63.71;100270.22;7349240;19;20139;-61
2023/03/10 11:31:20;;;;;;;0.00;0.00;;;;;;;13.97;63.19;100279.06;7247710;19;2004461;-62
2023/03/10 11:34:14;;;;;;;0.00;0.00;;;;;;;14.35;63.34;100273.91;7349850;19;20051;-62
2023/03/10 11:36:51;;;;;;;0.10;0.10;;;;;;;14.51;62.89;100246.88;7249295;19;2004528;-62
2023/03/10 11:39:32;;;;;;;0.00;0.00;;;;;;;14.91;62.73;100268.69;7347538;19;20007;-62
2023/03/10 11:42:07;;;;;;;0.10;0.10;;;;;;;15.13;62.23;100272.91;7349749;19;20011;-62
2023/03/10 11:44:54;;;;;;;0.00;0.00;;;;;;;15.35;61.67;100280.59;7351366;19;20031;-62